Mar Maria — 9HA2859 — position and weather

sailwx.info

Track history (hours):
 
Tides and Currents Weather Stations Pressure Air Temp Water Temp Dewpoint Dewpoint Depression Visibility Wind Speed Wind Dir Waves Ship Positions

Mar Maria

Last reported at 2014-Jul-22 08:33 UTC. Time now 2014-Jul-22 09:15 UTC.
Position N 43°29' E 007°42'.

Length 103 m; draft 5.7 m.

MMSI: 256435000.

Date/timePositionNaut miles runAvg speedWind from/ knotsBaromVisibWave heightAir tempDewpointWater temp
2014-Jul-22 08:33N 43°29' E 007°42'0 0.2
2014-Jul-22 07:33N 43°29' E 007°42'0 0.3
2014-Jul-22 06:27N 43°29' E 007°42'7 7.4
2014-Jul-22 05:32N 43°25' E 007°34'8 8.6
2014-Jul-22 04:34N 43°20' E 007°26'10 8.4
2014-Jul-22 03:20N 43°12' E 007°16'1 1.6
2014-Jul-22 02:32N 43°13' E 007°17'10 8.5
2014-Jul-22 01:19N 43°22' E 007°25'8 8.8
2014-Jul-22 00:23N 43°28' E 007°32'7 8.8
2014-Jul-21 23:34N 43°34' E 007°38'0 0.2
2014-Jul-21 22:34N 43°34' E 007°38'9 8.6
2014-Jul-21 21:33N 43°27' E 007°30'14 8.2
2014-Jul-21 19:49N 43°17' E 007°18'2 8.1
2014-Jul-21 19:34N 43°15' E 007°16'1 1.2
2014-Jul-21 18:33N 43°14' E 007°17'9 8.7
2014-Jul-21 17:30N 43°21' E 007°25'9 9.0
2014-Jul-21 16:30N 43°28' E 007°34'7 7.7
2014-Jul-21 15:33N 43°33' E 007°41'42 7.0
2014-Jul-21 09:29N 42°58' E 007°09'6 6.1
2014-Jul-21 08:26N 43°02' E 007°15'7 6.8
2014-Jul-21 07:25N 43°07' E 007°21'9 1.9
2014-Jul-21 02:30N 43°04' E 007°09'7 7.5
2014-Jul-21 01:33N 42°60' E 007°02'8 7.7
2014-Jul-21 00:33N 42°55' E 006°53'9 8.0
2014-Jul-20 23:28N 42°49' E 006°44'8 8.6
2014-Jul-20 22:33N 42°46' E 006°34'10 9.6
2014-Jul-20 21:34N 42°45' E 006°22'10 9.8
2014-Jul-20 20:34N 42°43' E 006°08'10 9.8
2014-Jul-20 19:34N 42°43' E 005°55'10 9.8
2014-Jul-20 18:34N 42°43' E 005°42'10 9.7
2014-Jul-20 17:32N 42°44' E 005°29'34 6.5
2014-Jul-20 12:13N 42°49' E 004°42'5 1.0
2014-Jul-20 07:14N 42°45' E 004°47'0 0.2
2014-Jul-20 06:18N 42°45' E 004°47'810.5
2014-Jul-20 05:29N 42°49' E 004°37'8 6.8
2014-Jul-20 04:21N 42°53' E 004°28'9 9.6
2014-Jul-20 03:27N 42°48' E 004°38'9 9.8
2014-Jul-20 02:33N 42°44' E 004°48'5 5.5
2014-Jul-20 01:33N 42°44' E 004°56'11 9.1
2014-Jul-20 00:20N 42°55' E 004°55'7 8.4
2014-Jul-19 23:33N 43°01' E 004°55'6 6.0
2014-Jul-19 22:34N 43°07' E 004°54'10 8.2
2014-Jul-19 21:19N 43°02' E 004°42'6 8.5
2014-Jul-19 20:33N 42°59' E 004°34'7 5.2
2014-Jul-19 19:17N 42°53' E 004°33'7 9.5
2014-Jul-19 18:33N 42°49' E 004°41'9 9.3
2014-Jul-19 17:32N 42°44' E 004°52'13 6.0
2014-Jul-19 15:27N 42°57' E 004°48'7 7.6
2014-Jul-19 14:32N 43°03' E 004°45'7 6.9
2014-Jul-19 13:33N 43°10' E 004°43'1 1.3
2014-Jul-19 12:32N 43°09' E 004°44'2 2.0
2014-Jul-19 11:32N 43°07' E 004°45'2 1.9
2014-Jul-19 10:31N 43°05' E 004°46'2 1.7
2014-Jul-19 09:31N 43°03' E 004°47'2 1.5
2014-Jul-19 08:28N 43°02' E 004°48'1 1.5
2014-Jul-19 07:28N 43°01' E 004°49'1 1.5
2014-Jul-19 06:31N 42°60' E 004°50'1 1.4
2014-Jul-19 05:28N 42°58' E 004°51'1 1.2
2014-Jul-19 04:31N 42°57' E 004°51'2 1.6
2014-Jul-19 03:31N 42°56' E 004°53'1 1.4
2014-Jul-19 02:31N 42°55' E 004°54'1 1.3
2014-Jul-19 01:31N 42°54' E 004°55'1 0.6
2014-Jul-19 00:31N 42°54' E 004°56'0 0.3
2014-Jul-18 23:31N 42°53' E 004°56'0 0.3
2014-Jul-18 22:31N 42°53' E 004°56'0 0.3
2014-Jul-18 21:31N 42°53' E 004°57'0 0.4
2014-Jul-18 20:31N 42°53' E 004°57'0 0.4
2014-Jul-18 19:31N 42°52' E 004°57'0 0.5
2014-Jul-18 18:31N 42°52' E 004°58'0 0.3
2014-Jul-18 17:31N 42°52' E 004°58'0 0.4
2014-Jul-18 16:31N 42°52' E 004°59'0 0.3
2014-Jul-18 15:33N 42°52' E 004°59'1010.2
2014-Jul-18 14:33N 43°02' E 004°60'1212.4
2014-Jul-18 13:33N 43°14' E 004°60'1 1.1
2014-Jul-18 12:33N 43°14' E 005°01'1212.2
2014-Jul-18 11:34N 43°02' E 004°60'8 7.9
2014-Jul-18 10:31N 42°54' E 004°57'0 0.2
2014-Jul-18 09:28N 42°54' E 004°57'0 0.1
2014-Jul-18 08:31N 42°54' E 004°57'0 0.1
2014-Jul-18 06:28N 42°54' E 004°57'1 0.3
2014-Jul-18 04:31N 42°54' E 004°58'1 0.6
2014-Jul-18 03:28N 42°53' E 004°59'0 0.5
2014-Jul-18 02:33N 42°54' E 004°59'1111.4
2014-Jul-18 01:33N 43°05' E 005°01'7 7.1
2014-Jul-18 00:33N 43°11' E 005°07'1211.6
2014-Jul-17 23:33N 43°03' E 004°55'1313.0
2014-Jul-17 22:33N 42°52' E 004°45'4 3.5
2014-Jul-17 21:32N 42°49' E 004°43'0 0.4
2014-Jul-17 20:32N 42°49' E 004°44'0 0.4
2014-Jul-17 19:32N 42°48' E 004°44'0 0.3
2014-Jul-17 18:32N 42°48' E 004°44'0 0.2
2014-Jul-17 17:32N 42°48' E 004°44'0 0.2
2014-Jul-17 16:20N 42°48' E 004°44'0 0.2
2014-Jul-17 15:32N 42°48' E 004°45'0 0.3
2014-Jul-17 14:32N 42°47' E 004°45'0 0.3
2014-Jul-17 13:32N 42°47' E 004°45'0 0.3
2014-Jul-17 12:32N 42°47' E 004°46'0 0.3
2014-Jul-17 11:32N 42°47' E 004°46'0 0.2
2014-Jul-17 10:32N 42°47' E 004°46'0 0.2
2014-Jul-17 09:32N 42°47' E 004°47'0 0.1
2014-Jul-17 08:32N 42°47' E 004°47'0 0.2
2014-Jul-17 07:32N 42°47' E 004°47'0 0.3
2014-Jul-17 06:32N 42°47' E 004°47'0 0.4
2014-Jul-17 05:29N 42°47' E 004°48'1 0.5
2014-Jul-17 04:29N 42°47' E 004°49'1 0.7
2014-Jul-17 03:26N 42°47' E 004°50'1 1.0
2014-Jul-17 02:30N 42°47' E 004°51'1 1.0
2014-Jul-17 01:19N 42°48' E 004°52'1 0.9
2014-Jul-17 00:32N 42°48' E 004°53'1 0.9
2014-Jul-16 23:32N 42°49' E 004°54'1 0.8
2014-Jul-16 22:32N 42°50' E 004°54'1 0.7
2014-Jul-16 21:32N 42°51' E 004°54'2 0.7
2014-Jul-16 19:23N 42°52' E 004°55'1 0.8
2014-Jul-16 18:32N 42°53' E 004°55'9 9.0
2014-Jul-16 17:33N 43°01' E 004°59'1010.2
2014-Jul-16 16:33N 43°11' E 005°01'6 5.8
2014-Jul-16 15:33N 43°05' E 004°59'3 2.8
2014-Jul-16 14:33N 43°03' E 004°59'3 2.6
2014-Jul-16 13:33N 43°05' E 005°00'10 4.6
2014-Jul-16 11:22N 42°55' E 004°56'2 2.6
2014-Jul-16 10:33N 42°53' E 004°57'9 9.6
2014-Jul-16 09:33N 42°44' E 004°54'1 0.7
2014-Jul-16 08:33N 42°44' E 004°53'1111.2
2014-Jul-16 07:33N 42°55' E 004°56'1110.9
2014-Jul-16 06:33N 43°05' E 004°60'1010.4
2014-Jul-16 05:33N 43°16' E 004°60'8 8.1
2014-Jul-16 04:33N 43°24' E 004°60'0 0.0
2014-Jul-15 10:05N 43°24' E 004°60'2 4.5
2014-Jul-15 09:33N 43°24' E 004°57'0 0.3
2014-Jul-15 08:31N 43°24' E 004°56'0 0.0
2014-Jul-15 07:31N 43°24' E 004°56'0 0.0
2014-Jul-15 06:31N 43°24' E 004°56'0 0.0
2014-Jul-15 05:31N 43°24' E 004°56'0 0.0
2014-Jul-15 04:31N 43°24' E 004°56'0 0.0
2014-Jul-15 03:31N 43°24' E 004°56'0 0.0
2014-Jul-15 02:31N 43°24' E 004°56'0 0.0
2014-Jul-15 01:31N 43°24' E 004°56'0 0.0
2014-Jul-15 00:31N 43°24' E 004°56'0 0.0
2014-Jul-14 23:31N 43°24' E 004°56'0 0.0
2014-Jul-14 22:31N 43°24' E 004°56'0 0.0
2014-Jul-14 21:31N 43°24' E 004°56'0 0.0
2014-Jul-14 20:31N 43°24' E 004°56'0 0.0
2014-Jul-14 19:31N 43°24' E 004°56'0 0.0
2014-Jul-14 18:31N 43°24' E 004°56'0 0.0
2014-Jul-14 17:31N 43°24' E 004°56'0 0.0
2014-Jul-14 16:31N 43°24' E 004°56'0 0.0
2014-Jul-14 15:31N 43°24' E 004°56'0 0.0
2014-Jul-14 14:31N 43°24' E 004°56'0 0.0
2014-Jul-14 13:31N 43°24' E 004°56'0 0.0
2014-Jul-14 12:31N 43°24' E 004°56'0 0.0
2014-Jul-14 11:31N 43°24' E 004°56'0 0.0
2014-Jul-14 10:31N 43°24' E 004°56'0 0.0
2014-Jul-14 09:31N 43°24' E 004°56'0 0.0
2014-Jul-14 08:31N 43°24' E 004°56'4 4.6
2014-Jul-14 07:34N 43°20' E 004°59'9 9.2
2014-Jul-14 06:34N 43°12' E 005°02'1110.0
2014-Jul-14 05:28N 43°03' E 004°53'1010.4
2014-Jul-14 04:33N 42°55' E 004°45'1010.3
2014-Jul-14 03:33N 42°47' E 004°36'1010.2
2014-Jul-14 02:33N 42°39' E 004°28'1010.3
2014-Jul-14 01:33N 42°31' E 004°20'1010.3
2014-Jul-14 00:33N 42°23' E 004°11'1110.2
2014-Jul-13 23:31N 42°15' E 004°02'9 9.2
2014-Jul-13 22:32N 42°07' E 003°55'1010.2
2014-Jul-13 21:33N 41°60' E 003°46'1210.4
2014-Jul-13 20:26N 41°51' E 003°37'5010.0
2014-Jul-13 15:26N 41°26' E 002°39'1910.3
2014-Jul-13 13:33N 41°16' E 002°16'6 6.2
2014-Jul-13 12:32N 41°20' E 002°09'1 0.1
2014-Jul-12 20:26N 41°20' E 002°10'13 9.9
2014-Jul-12 19:05N 41°08' E 002°05'712.5
2014-Jul-12 18:33N 41°02' E 002°01'1212.5
2014-Jul-12 17:33N 40°51' E 001°53'1312.6
2014-Jul-12 16:33N 40°39' E 001°45'1312.7
2014-Jul-12 15:33N 40°28' E 001°38'1312.9
2014-Jul-12 14:33N 40°17' E 001°30'1312.7
2014-Jul-12 13:33N 40°05' E 001°23'1312.5
2014-Jul-12 12:33N 39°54' E 001°16'1312.6
2014-Jul-12 11:33N 39°43' E 001°08'  
Track history (hours):
 
Tides and Currents Weather Stations Pressure Air Temp Water Temp Dewpoint Dewpoint Depression Visibility Wind Speed Wind Dir Waves Ship Positions

Mar Maria

Last reported at 2014-Jul-22 08:33 UTC. Time now 2014-Jul-22 09:15 UTC.
Position N 43°29' E 007°42'.

Length 103 m; draft 5.7 m.

MMSI: 256435000.

Date/timePositionNaut miles runAvg speedWind from/ knotsBaromVisibWave heightAir tempDewpointWater temp
2014-Jul-22 08:33N 43°29' E 007°42'0 0.2
2014-Jul-22 07:33N 43°29' E 007°42'0 0.3
2014-Jul-22 06:27N 43°29' E 007°42'7 7.4
2014-Jul-22 05:32N 43°25' E 007°34'8 8.6
2014-Jul-22 04:34N 43°20' E 007°26'10 8.4
2014-Jul-22 03:20N 43°12' E 007°16'1 1.6
2014-Jul-22 02:32N 43°13' E 007°17'10 8.5
2014-Jul-22 01:19N 43°22' E 007°25'8 8.8
2014-Jul-22 00:23N 43°28' E 007°32'7 8.8
2014-Jul-21 23:34N 43°34' E 007°38'0 0.2
2014-Jul-21 22:34N 43°34' E 007°38'9 8.6
2014-Jul-21 21:33N 43°27' E 007°30'14 8.2
2014-Jul-21 19:49N 43°17' E 007°18'2 8.1
2014-Jul-21 19:34N 43°15' E 007°16'1 1.2
2014-Jul-21 18:33N 43°14' E 007°17'9 8.7
2014-Jul-21 17:30N 43°21' E 007°25'9 9.0
2014-Jul-21 16:30N 43°28' E 007°34'7 7.7
2014-Jul-21 15:33N 43°33' E 007°41'42 7.0
2014-Jul-21 09:29N 42°58' E 007°09'6 6.1
2014-Jul-21 08:26N 43°02' E 007°15'7 6.8
2014-Jul-21 07:25N 43°07' E 007°21'9 1.9
2014-Jul-21 02:30N 43°04' E 007°09'7 7.5
2014-Jul-21 01:33N 42°60' E 007°02'8 7.7
2014-Jul-21 00:33N 42°55' E 006°53'9 8.0
2014-Jul-20 23:28N 42°49' E 006°44'8 8.6
2014-Jul-20 22:33N 42°46' E 006°34'10 9.6
2014-Jul-20 21:34N 42°45' E 006°22'10 9.8
2014-Jul-20 20:34N 42°43' E 006°08'10 9.8
2014-Jul-20 19:34N 42°43' E 005°55'10 9.8
2014-Jul-20 18:34N 42°43' E 005°42'10 9.7
2014-Jul-20 17:32N 42°44' E 005°29'34 6.5
2014-Jul-20 12:13N 42°49' E 004°42'5 1.0
2014-Jul-20 07:14N 42°45' E 004°47'0 0.2
2014-Jul-20 06:18N 42°45' E 004°47'810.5
2014-Jul-20 05:29N 42°49' E 004°37'8 6.8
2014-Jul-20 04:21N 42°53' E 004°28'9 9.6
2014-Jul-20 03:27N 42°48' E 004°38'9 9.8
2014-Jul-20 02:33N 42°44' E 004°48'5 5.5
2014-Jul-20 01:33N 42°44' E 004°56'11 9.1
2014-Jul-20 00:20N 42°55' E 004°55'7 8.4
2014-Jul-19 23:33N 43°01' E 004°55'6 6.0
2014-Jul-19 22:34N 43°07' E 004°54'10 8.2
2014-Jul-19 21:19N 43°02' E 004°42'6 8.5
2014-Jul-19 20:33N 42°59' E 004°34'7 5.2
2014-Jul-19 19:17N 42°53' E 004°33'7 9.5
2014-Jul-19 18:33N 42°49' E 004°41'9 9.3
2014-Jul-19 17:32N 42°44' E 004°52'13 6.0
2014-Jul-19 15:27N 42°57' E 004°48'7 7.6
2014-Jul-19 14:32N 43°03' E 004°45'7 6.9
2014-Jul-19 13:33N 43°10' E 004°43'1 1.3
2014-Jul-19 12:32N 43°09' E 004°44'2 2.0
2014-Jul-19 11:32N 43°07' E 004°45'2 1.9
2014-Jul-19 10:31N 43°05' E 004°46'2 1.7
2014-Jul-19 09:31N 43°03' E 004°47'2 1.5
2014-Jul-19 08:28N 43°02' E 004°48'1 1.5
2014-Jul-19 07:28N 43°01' E 004°49'1 1.5
2014-Jul-19 06:31N 42°60' E 004°50'1 1.4
2014-Jul-19 05:28N 42°58' E 004°51'1 1.2
2014-Jul-19 04:31N 42°57' E 004°51'2 1.6
2014-Jul-19 03:31N 42°56' E 004°53'1 1.4
2014-Jul-19 02:31N 42°55' E 004°54'1 1.3
2014-Jul-19 01:31N 42°54' E 004°55'1 0.6
2014-Jul-19 00:31N 42°54' E 004°56'0 0.3
2014-Jul-18 23:31N 42°53' E 004°56'0 0.3
2014-Jul-18 22:31N 42°53' E 004°56'0 0.3
2014-Jul-18 21:31N 42°53' E 004°57'0 0.4
2014-Jul-18 20:31N 42°53' E 004°57'0 0.4
2014-Jul-18 19:31N 42°52' E 004°57'0 0.5
2014-Jul-18 18:31N 42°52' E 004°58'0 0.3
2014-Jul-18 17:31N 42°52' E 004°58'0 0.4
2014-Jul-18 16:31N 42°52' E 004°59'0 0.3
2014-Jul-18 15:33N 42°52' E 004°59'1010.2
2014-Jul-18 14:33N 43°02' E 004°60'1212.4
2014-Jul-18 13:33N 43°14' E 004°60'1 1.1
2014-Jul-18 12:33N 43°14' E 005°01'1212.2
2014-Jul-18 11:34N 43°02' E 004°60'8 7.9
2014-Jul-18 10:31N 42°54' E 004°57'0 0.2
2014-Jul-18 09:28N 42°54' E 004°57'0 0.1
2014-Jul-18 08:31N 42°54' E 004°57'0 0.1
2014-Jul-18 06:28N 42°54' E 004°57'1 0.3
2014-Jul-18 04:31N 42°54' E 004°58'1 0.6
2014-Jul-18 03:28N 42°53' E 004°59'0 0.5
2014-Jul-18 02:33N 42°54' E 004°59'1111.4
2014-Jul-18 01:33N 43°05' E 005°01'7 7.1
2014-Jul-18 00:33N 43°11' E 005°07'1211.6
2014-Jul-17 23:33N 43°03' E 004°55'1313.0
2014-Jul-17 22:33N 42°52' E 004°45'4 3.5
2014-Jul-17 21:32N 42°49' E 004°43'0 0.4
2014-Jul-17 20:32N 42°49' E 004°44'0 0.4
2014-Jul-17 19:32N 42°48' E 004°44'0 0.3
2014-Jul-17 18:32N 42°48' E 004°44'0 0.2
2014-Jul-17 17:32N 42°48' E 004°44'0 0.2
2014-Jul-17 16:20N 42°48' E 004°44'0 0.2
2014-Jul-17 15:32N 42°48' E 004°45'0 0.3
2014-Jul-17 14:32N 42°47' E 004°45'0 0.3
2014-Jul-17 13:32N 42°47' E 004°45'0 0.3
2014-Jul-17 12:32N 42°47' E 004°46'0 0.3
2014-Jul-17 11:32N 42°47' E 004°46'0 0.2
2014-Jul-17 10:32N 42°47' E 004°46'0 0.2
2014-Jul-17 09:32N 42°47' E 004°47'0 0.1
2014-Jul-17 08:32N 42°47' E 004°47'0 0.2
2014-Jul-17 07:32N 42°47' E 004°47'0 0.3
2014-Jul-17 06:32N 42°47' E 004°47'0 0.4
2014-Jul-17 05:29N 42°47' E 004°48'1 0.5
2014-Jul-17 04:29N 42°47' E 004°49'1 0.7
2014-Jul-17 03:26N 42°47' E 004°50'1 1.0
2014-Jul-17 02:30N 42°47' E 004°51'1 1.0
2014-Jul-17 01:19N 42°48' E 004°52'1 0.9
2014-Jul-17 00:32N 42°48' E 004°53'1 0.9
2014-Jul-16 23:32N 42°49' E 004°54'1 0.8
2014-Jul-16 22:32N 42°50' E 004°54'1 0.7
2014-Jul-16 21:32N 42°51' E 004°54'2 0.7
2014-Jul-16 19:23N 42°52' E 004°55'1 0.8
2014-Jul-16 18:32N 42°53' E 004°55'9 9.0
2014-Jul-16 17:33N 43°01' E 004°59'1010.2
2014-Jul-16 16:33N 43°11' E 005°01'6 5.8
2014-Jul-16 15:33N 43°05' E 004°59'3 2.8
2014-Jul-16 14:33N 43°03' E 004°59'3 2.6
2014-Jul-16 13:33N 43°05' E 005°00'10 4.6
2014-Jul-16 11:22N 42°55' E 004°56'2 2.6
2014-Jul-16 10:33N 42°53' E 004°57'9 9.6
2014-Jul-16 09:33N 42°44' E 004°54'1 0.7
2014-Jul-16 08:33N 42°44' E 004°53'1111.2
2014-Jul-16 07:33N 42°55' E 004°56'1110.9
2014-Jul-16 06:33N 43°05' E 004°60'1010.4
2014-Jul-16 05:33N 43°16' E 004°60'8 8.1
2014-Jul-16 04:33N 43°24' E 004°60'0 0.0
2014-Jul-15 10:05N 43°24' E 004°60'2 4.5
2014-Jul-15 09:33N 43°24' E 004°57'0 0.3
2014-Jul-15 08:31N 43°24' E 004°56'0 0.0
2014-Jul-15 07:31N 43°24' E 004°56'0 0.0
2014-Jul-15 06:31N 43°24' E 004°56'0 0.0
2014-Jul-15 05:31N 43°24' E 004°56'0 0.0
2014-Jul-15 04:31N 43°24' E 004°56'0 0.0
2014-Jul-15 03:31N 43°24' E 004°56'0 0.0
2014-Jul-15 02:31N 43°24' E 004°56'0 0.0
2014-Jul-15 01:31N 43°24' E 004°56'0 0.0
2014-Jul-15 00:31N 43°24' E 004°56'0 0.0
2014-Jul-14 23:31N 43°24' E 004°56'0 0.0
2014-Jul-14 22:31N 43°24' E 004°56'0 0.0
2014-Jul-14 21:31N 43°24' E 004°56'0 0.0
2014-Jul-14 20:31N 43°24' E 004°56'0 0.0
2014-Jul-14 19:31N 43°24' E 004°56'0 0.0
2014-Jul-14 18:31N 43°24' E 004°56'0 0.0
2014-Jul-14 17:31N 43°24' E 004°56'0 0.0
2014-Jul-14 16:31N 43°24' E 004°56'0 0.0
2014-Jul-14 15:31N 43°24' E 004°56'0 0.0
2014-Jul-14 14:31N 43°24' E 004°56'0 0.0
2014-Jul-14 13:31N 43°24' E 004°56'0 0.0
2014-Jul-14 12:31N 43°24' E 004°56'0 0.0
2014-Jul-14 11:31N 43°24' E 004°56'0 0.0
2014-Jul-14 10:31N 43°24' E 004°56'0 0.0
2014-Jul-14 09:31N 43°24' E 004°56'0 0.0
2014-Jul-14 08:31N 43°24' E 004°56'4 4.6
2014-Jul-14 07:34N 43°20' E 004°59'9 9.2
2014-Jul-14 06:34N 43°12' E 005°02'1110.0
2014-Jul-14 05:28N 43°03' E 004°53'1010.4
2014-Jul-14 04:33N 42°55' E 004°45'1010.3
2014-Jul-14 03:33N 42°47' E 004°36'1010.2
2014-Jul-14 02:33N 42°39' E 004°28'1010.3
2014-Jul-14 01:33N 42°31' E 004°20'1010.3
2014-Jul-14 00:33N 42°23' E 004°11'1110.2
2014-Jul-13 23:31N 42°15' E 004°02'9 9.2
2014-Jul-13 22:32N 42°07' E 003°55'1010.2
2014-Jul-13 21:33N 41°60' E 003°46'1210.4
2014-Jul-13 20:26N 41°51' E 003°37'5010.0
2014-Jul-13 15:26N 41°26' E 002°39'1910.3
2014-Jul-13 13:33N 41°16' E 002°16'6 6.2
2014-Jul-13 12:32N 41°20' E 002°09'1 0.1
2014-Jul-12 20:26N 41°20' E 002°10'13 9.9
2014-Jul-12 19:05N 41°08' E 002°05'712.5
2014-Jul-12 18:33N 41°02' E 002°01'1212.5
2014-Jul-12 17:33N 40°51' E 001°53'1312.6
2014-Jul-12 16:33N 40°39' E 001°45'1312.7
2014-Jul-12 15:33N 40°28' E 001°38'1312.9
2014-Jul-12 14:33N 40°17' E 001°30'1312.7
2014-Jul-12 13:33N 40°05' E 001°23'1312.5
2014-Jul-12 12:33N 39°54' E 001°16'1312.6
2014-Jul-12 11:33N 39°43' E 001°08'  

Dump ship's entire track history